Time;durP1;ratioP1;P1;durP2;ratioP2;P2;SDS_P1;SDS_P2;PMS_P1;PMS_P2;Temp;Humidity;BMP_temperature;BMP_pressure;BME280_temperature;BME280_humidity;BME280_pressure;Samples;Min_cycle;Max_cycle;Signal;HPM_P1;HPM_P2
2020/12/31 00:00:59;;;;;;;72.85;42.42;;;;;;;;;;5077885;28;20044;-70
2020/12/31 00:03:24;;;;;;;73.45;43.83;;;;;;;;;;5095431;28;20032;-71
2020/12/31 00:05:51;;;;;;;75.32;43.75;;;;;;;;;;5093762;28;20036;-70
2020/12/31 00:08:16;;;;;;;73.88;43.30;;;;;;;;;;5087714;28;20040;-64
2020/12/31 00:10:42;;;;;;;75.15;44.22;;;;;;;;;;5079887;28;20055;-71
2020/12/31 00:13:08;;;;;;;80.28;43.80;;;;;;;;;;5095223;28;20115;-71
2020/12/31 00:15:33;;;;;;;77.50;44.97;;;;;;;;;;5095752;28;20099;-71
2020/12/31 00:17:59;;;;;;;75.63;43.75;;;;;;;;;;5095741;28;20431;-70
2020/12/31 00:20:24;;;;;;;71.97;42.35;;;;;;;;;;5095463;28;20043;-70
2020/12/31 00:22:50;;;;;;;75.10;43.05;;;;;;;;;;5095556;28;20032;-70
2020/12/31 00:25:15;;;;;;;76.72;44.05;;;;;;;;;;5095607;28;20028;-70
2020/12/31 00:27:41;;;;;;;71.45;42.17;;;;;;;;;;5095227;28;20130;-70
2020/12/31 00:30:16;;;;;;;76.40;45.35;;;;;;;;;;5095676;28;20035;-70
2020/12/31 00:32:42;;;;;;;72.47;43.70;;;;;;;;;;5095244;28;20039;-70
2020/12/31 00:35:07;;;;;;;78.00;45.25;;;;;;;;;;5094494;28;20024;-70
2020/12/31 00:37:33;;;;;;;78.30;45.85;;;;;;;;;;5077125;28;20501;-70
2020/12/31 00:39:59;;;;;;;78.55;46.33;;;;;;;;;;5078897;28;20086;-70
2020/12/31 00:42:25;;;;;;;81.13;45.05;;;;;;;;;;5073550;28;20040;-70
2020/12/31 00:44:51;;;;;;;75.47;43.22;;;;;;;;;;5039750;28;20063;-70
2020/12/31 00:47:17;;;;;;;79.55;45.25;;;;;;;;;;5074783;28;20036;-69
2020/12/31 00:49:42;;;;;;;73.82;43.15;;;;;;;;;;5040044;28;20036;-70
2020/12/31 00:52:08;;;;;;;72.53;42.92;;;;;;;;;;5074443;28;20032;-71
2020/12/31 00:54:33;;;;;;;74.45;43.08;;;;;;;;;;5073264;28;20024;-71
2020/12/31 00:56:59;;;;;;;73.82;42.25;;;;;;;;;;5073098;28;20433;-70
2020/12/31 00:59:25;;;;;;;75.20;44.00;;;;;;;;;;5056678;28;20036;-71
2020/12/31 01:01:50;;;;;;;76.97;44.08;;;;;;;;;;5074130;28;20032;-70
2020/12/31 01:04:16;;;;;;;74.75;43.97;;;;;;;;;;5074183;28;20087;-70
2020/12/31 01:06:42;;;;;;;72.85;42.78;;;;;;;;;;5074231;28;20098;-70
2020/12/31 01:09:08;;;;;;;75.38;42.95;;;;;;;;;;5074326;28;20036;-70
2020/12/31 01:11:36;;;;;;;78.40;43.70;;;;;;;;;;5072418;28;20479;-70
2020/12/31 01:14:01;;;;;;;73.55;42.53;;;;;;;;;;5073935;28;20395;-70
2020/12/31 01:16:27;;;;;;;73.60;42.42;;;;;;;;;;5073975;28;20044;-69
2020/12/31 01:18:52;;;;;;;75.55;42.90;;;;;;;;;;5073852;28;20111;-64
2020/12/31 01:21:18;;;;;;;73.47;43.28;;;;;;;;;;5056246;28;20037;-64
2020/12/31 01:23:43;;;;;;;81.22;43.17;;;;;;;;;;5073188;28;20032;-64
2020/12/31 01:26:11;;;;;;;75.88;42.38;;;;;;;;;;5074605;28;20040;-63
2020/12/31 01:28:37;;;;;;;75.32;43.20;;;;;;;;;;5084094;28;20041;-63
2020/12/31 01:31:06;;;;;;;74.75;43.13;;;;;;;;;;5068061;28;20042;-64
2020/12/31 01:33:32;;;;;;;78.05;43.33;;;;;;;;;;5094074;28;20130;-64
2020/12/31 01:35:57;;;;;;;70.95;41.13;;;;;;;;;;5094014;28;20063;-64
2020/12/31 01:38:23;;;;;;;71.38;41.50;;;;;;;;;;5077630;28;20067;-64
2020/12/31 01:40:50;;;;;;;74.57;42.10;;;;;;;;;;5074009;28;20041;-64
2020/12/31 01:43:15;;;;;;;69.60;40.75;;;;;;;;;;5072794;28;20112;-64
2020/12/31 01:45:41;;;;;;;73.20;41.47;;;;;;;;;;5073422;28;20068;-64
2020/12/31 01:48:07;;;;;;;72.50;42.65;;;;;;;;;;5073540;28;20028;-64
2020/12/31 01:50:33;;;;;;;72.50;41.33;;;;;;;;;;5089739;28;20123;-64
2020/12/31 01:52:58;;;;;;;73.82;41.50;;;;;;;;;;5093710;28;20505;-64
2020/12/31 01:55:24;;;;;;;76.53;41.83;;;;;;;;;;5075685;28;20040;-64
2020/12/31 01:57:51;;;;;;;74.28;40.97;;;;;;;;;;5075341;28;20111;-64
2020/12/31 02:00:16;;;;;;;71.47;39.58;;;;;;;;;;5075599;28;20436;-64
2020/12/31 02:02:42;;;;;;;70.70;40.53;;;;;;;;;;5093689;28;20016;-64
2020/12/31 02:05:10;;;;;;;73.63;41.03;;;;;;;;;;5093492;28;20040;-64
2020/12/31 02:07:35;;;;;;;73.10;41.65;;;;;;;;;;5075571;28;20480;-64
2020/12/31 02:10:02;;;;;;;74.45;40.60;;;;;;;;;;5075304;28;20036;-64
2020/12/31 02:12:30;;;;;;;70.80;41.47;;;;;;;;;;5093233;28;20066;-64
2020/12/31 02:14:55;;;;;;;74.57;42.17;;;;;;;;;;5093424;28;20032;-64
2020/12/31 02:17:21;;;;;;;79.72;43.78;;;;;;;;;;5093662;28;20103;-64
2020/12/31 02:19:46;;;;;;;75.38;41.25;;;;;;;;;;5093325;28;20044;-64
2020/12/31 02:22:12;;;;;;;77.20;43.47;;;;;;;;;;5093042;28;20067;-64
2020/12/31 02:24:38;;;;;;;75.35;42.58;;;;;;;;;;5075124;28;20557;-63
2020/12/31 02:27:03;;;;;;;77.07;42.95;;;;;;;;;;5093338;28;20112;-64
2020/12/31 02:29:29;;;;;;;74.28;43.83;;;;;;;;;;5093080;28;20032;-63
2020/12/31 02:31:54;;;;;;;72.90;42.50;;;;;;;;;;5093103;28;20099;-64
2020/12/31 02:34:20;;;;;;;83.32;44.42;;;;;;;;;;5075263;28;20470;-63
2020/12/31 02:36:45;;;;;;;80.65;42.85;;;;;;;;;;5097003;28;20043;-63
2020/12/31 02:39:12;;;;;;;73.00;39.92;;;;;;;;;;5097264;28;20032;-63
2020/12/31 02:41:38;;;;;;;76.55;41.45;;;;;;;;;;5097098;28;20020;-71
2020/12/31 02:44:03;;;;;;;75.75;41.03;;;;;;;;;;5095990;28;20031;-70
2020/12/31 02:46:29;;;;;;;76.82;42.00;;;;;;;;;;5097073;28;20588;-69
2020/12/31 02:48:54;;;;;;;79.75;42.85;;;;;;;;;;5097233;28;20055;-69
2020/12/31 02:51:20;;;;;;;80.05;41.75;;;;;;;;;;5095694;28;20378;-70
2020/12/31 02:53:46;;;;;;;75.68;40.85;;;;;;;;;;5097538;28;20121;-70
2020/12/31 02:56:12;;;;;;;75.57;40.60;;;;;;;;;;5097270;28;20111;-70
2020/12/31 02:58:38;;;;;;;78.00;40.03;;;;;;;;;;5096924;28;20044;-70
2020/12/31 03:01:05;;;;;;;72.18;38.90;;;;;;;;;;5097065;28;20032;-70
2020/12/31 03:03:30;;;;;;;70.82;39.17;;;;;;;;;;5097347;28;20410;-70
2020/12/31 03:05:55;;;;;;;72.80;38.67;;;;;;;;;;5096885;28;20044;-70
2020/12/31 03:08:21;;;;;;;74.78;39.22;;;;;;;;;;5097041;28;20039;-70
2020/12/31 03:10:47;;;;;;;65.93;37.17;;;;;;;;;;5095480;28;20043;-70
2020/12/31 03:13:12;;;;;;;66.30;35.60;;;;;;;;;;5096720;28;20032;-70
2020/12/31 03:15:37;;;;;;;66.90;35.55;;;;;;;;;;5096334;28;20039;-70
2020/12/31 03:18:03;;;;;;;64.00;33.72;;;;;;;;;;5096396;28;20500;-69
2020/12/31 03:20:31;;;;;;;54.15;29.70;;;;;;;;;;5096706;28;20045;-62
2020/12/31 03:22:56;;;;;;;58.08;30.40;;;;;;;;;;5096330;28;20044;-63
2020/12/31 03:25:22;;;;;;;58.15;30.95;;;;;;;;;;5078601;28;20031;-63
2020/12/31 03:27:47;;;;;;;59.08;30.75;;;;;;;;;;5096603;28;20051;-63
2020/12/31 03:30:13;;;;;;;52.80;30.70;;;;;;;;;;5078178;28;20387;-63
2020/12/31 03:32:38;;;;;;;50.55;28.13;;;;;;;;;;5096256;28;20037;-63
2020/12/31 03:35:04;;;;;;;56.95;28.27;;;;;;;;;;5096229;28;20050;-63
2020/12/31 03:37:29;;;;;;;51.65;27.45;;;;;;;;;;5078309;28;20477;-62
2020/12/31 03:39:55;;;;;;;51.17;28.17;;;;;;;;;;5061341;28;20087;-63
2020/12/31 03:42:20;;;;;;;51.17;27.15;;;;;;;;;;5096088;28;20046;-63
2020/12/31 03:44:46;;;;;;;47.63;25.75;;;;;;;;;;5096231;28;20036;-63
2020/12/31 03:47:12;;;;;;;47.92;26.10;;;;;;;;;;5094832;28;20401;-63
2020/12/31 03:49:37;;;;;;;47.50;25.67;;;;;;;;;;5095974;28;20032;-64
2020/12/31 03:52:03;;;;;;;41.60;24.15;;;;;;;;;;5095895;28;20039;-64
2020/12/31 03:54:28;;;;;;;46.33;24.45;;;;;;;;;;5077775;28;20020;-64
2020/12/31 03:56:54;;;;;;;47.75;24.77;;;;;;;;;;5095702;28;20036;-63
2020/12/31 03:59:19;;;;;;;48.65;24.98;;;;;;;;;;5077774;28;20077;-63
2020/12/31 04:01:45;;;;;;;48.58;24.42;;;;;;;;;;5095852;28;20036;-63
2020/12/31 04:04:11;;;;;;;46.63;24.42;;;;;;;;;;5077384;28;20561;-63
2020/12/31 04:06:37;;;;;;;45.72;24.05;;;;;;;;;;5095608;28;20068;-63
2020/12/31 04:09:02;;;;;;;42.53;23.80;;;;;;;;;;5077013;28;20058;-63
2020/12/31 04:11:28;;;;;;;45.90;24.15;;;;;;;;;;5095139;28;20505;-64
2020/12/31 04:13:53;;;;;;;42.22;23.33;;;;;;;;;;5095646;28;20064;-64
2020/12/31 04:16:19;;;;;;;39.97;23.15;;;;;;;;;;5095504;28;20032;-64
2020/12/31 04:18:44;;;;;;;41.67;22.88;;;;;;;;;;5077251;28;20119;-64
2020/12/31 04:21:10;;;;;;;39.17;21.48;;;;;;;;;;5077248;28;20061;-63
2020/12/31 04:23:37;;;;;;;43.22;22.90;;;;;;;;;;5077347;28;20036;-63
2020/12/31 04:26:03;;;;;;;41.03;22.95;;;;;;;;;;5095610;28;20549;-64
2020/12/31 04:28:28;;;;;;;39.42;21.70;;;;;;;;;;5095324;28;20108;-63
2020/12/31 04:30:54;;;;;;;41.72;22.63;;;;;;;;;;5095331;28;20040;-63
2020/12/31 04:33:19;;;;;;;36.38;22.05;;;;;;;;;;5095195;28;20074;-64
2020/12/31 04:35:45;;;;;;;36.63;21.77;;;;;;;;;;5095302;28;20131;-63
2020/12/31 04:38:10;;;;;;;43.20;24.70;;;;;;;;;;5095136;28;20039;-63
2020/12/31 04:40:41;;;;;;;53.45;26.67;;;;;;;;;;5095087;28;20059;-63
2020/12/31 04:43:06;;;;;;;59.55;30.13;;;;;;;;;;5094956;28;20048;-63
2020/12/31 04:45:32;;;;;;;57.22;30.48;;;;;;;;;;5095060;28;20118;-63
2020/12/31 04:47:57;;;;;;;63.25;30.15;;;;;;;;;;5094771;28;20372;-63
2020/12/31 04:50:27;;;;;;;57.83;29.55;;;;;;;;;;5076908;28;20034;-63
2020/12/31 04:52:53;;;;;;;51.25;27.30;;;;;;;;;;5094831;28;20032;-63
2020/12/31 04:55:21;;;;;;;44.45;25.58;;;;;;;;;;5095049;28;20034;-63
2020/12/31 04:57:46;;;;;;;47.53;24.17;;;;;;;;;;5094773;28;20486;-63
2020/12/31 05:00:12;;;;;;;44.75;23.33;;;;;;;;;;5094752;28;20035;-70
2020/12/31 05:02:38;;;;;;;48.42;25.83;;;;;;;;;;5094840;28;20035;-70
2020/12/31 05:05:03;;;;;;;39.42;23.73;;;;;;;;;;5077041;28;20036;-70
2020/12/31 05:07:29;;;;;;;40.42;23.65;;;;;;;;;;5094613;28;20153;-71
2020/12/31 05:10:10;;;;;;;41.03;23.50;;;;;;;;;;5094353;28;20532;-70
2020/12/31 05:12:36;;;;;;;44.13;23.10;;;;;;;;;;5094619;28;20036;-70
2020/12/31 05:15:01;;;;;;;38.70;22.35;;;;;;;;;;5093567;28;20036;-69
2020/12/31 05:17:29;;;;;;;38.53;21.25;;;;;;;;;;5093626;28;20036;-68
2020/12/31 05:19:54;;;;;;;37.92;22.00;;;;;;;;;;5059925;28;20028;-68
2020/12/31 05:22:20;;;;;;;40.13;21.63;;;;;;;;;;5087210;28;20515;-68
2020/12/31 05:24:52;;;;;;;37.58;23.40;;;;;;;;;;5073976;28;20059;-68
2020/12/31 05:27:23;;;;;;;41.70;22.73;;;;;;;;;;5061258;28;20386;-68
2020/12/31 05:29:54;;;;;;;38.75;22.83;;;;;;;;;;5083532;28;20038;-68
2020/12/31 05:32:21;;;;;;;46.67;28.25;;;;;;;;;;5090104;28;20114;-68
2020/12/31 05:34:46;;;;;;;38.45;21.60;;;;;;;;;;5065967;28;20020;-68
2020/12/31 05:37:13;;;;;;;37.15;22.90;;;;;;;;;;5087432;28;20030;-68
2020/12/31 05:39:53;;;;;;;33.45;20.10;;;;;;;;;;5082390;28;20107;-68
2020/12/31 05:42:20;;;;;;;38.25;24.25;;;;;;;;;;5077874;28;20038;-67
2020/12/31 05:45:05;;;;;;;39.35;22.20;;;;;;;;;;5093850;28;20020;-68
2020/12/31 05:47:31;;;;;;;34.35;20.85;;;;;;;;;;5064569;28;20097;-68
2020/12/31 05:49:57;;;;;;;36.42;21.13;;;;;;;;;;5073776;28;20040;-68
2020/12/31 05:52:35;;;;;;;36.55;21.00;;;;;;;;;;5074961;28;20489;-63
2020/12/31 05:55:02;;;;;;;39.70;21.27;;;;;;;;;;5081986;28;20028;-62
2020/12/31 05:57:40;;;;;;;34.55;21.25;;;;;;;;;;5081672;28;20032;-63
2020/12/31 06:00:06;;;;;;;35.60;20.52;;;;;;;;;;5093960;28;20040;-63
2020/12/31 06:02:34;;;;;;;33.70;19.85;;;;;;;;;;5093090;28;20478;-63
2020/12/31 06:05:07;;;;;;;32.90;20.38;;;;;;;;;;5072595;28;20552;-63
2020/12/31 06:07:39;;;;;;;33.13;20.23;;;;;;;;;;5072173;28;20115;-62
2020/12/31 06:10:05;;;;;;;36.90;21.08;;;;;;;;;;5071595;28;20037;-63
2020/12/31 06:12:48;;;;;;;35.53;19.90;;;;;;;;;;5072001;28;20127;-63
2020/12/31 06:15:16;;;;;;;37.00;21.00;;;;;;;;;;5071095;28;20043;-63
2020/12/31 06:17:47;;;;;;;38.28;21.33;;;;;;;;;;5072137;28;20028;-63
2020/12/31 06:20:14;;;;;;;39.05;21.38;;;;;;;;;;5077351;28;20036;-63
2020/12/31 06:22:56;;;;;;;37.55;21.77;;;;;;;;;;5088413;28;20028;-63
2020/12/31 06:25:31;;;;;;;69.35;36.08;;;;;;;;;;5092560;28;20032;-63
2020/12/31 06:28:00;;;;;;;34.30;19.65;;;;;;;;;;5089177;28;20037;-63
2020/12/31 06:30:26;;;;;;;43.60;24.90;;;;;;;;;;5085342;28;20047;-63
2020/12/31 06:32:52;;;;;;;39.78;21.65;;;;;;;;;;5084990;28;20056;-63
2020/12/31 06:35:18;;;;;;;36.88;21.35;;;;;;;;;;5069385;28;20419;-63
2020/12/31 06:37:55;;;;;;;37.63;21.25;;;;;;;;;;5080757;28;20348;-63
2020/12/31 06:40:22;;;;;;;40.15;22.55;;;;;;;;;;5090255;28;20044;-63
2020/12/31 06:43:07;;;;;;;55.58;32.88;;;;;;;;;;5093365;28;20450;-63
2020/12/31 06:45:37;;;;;;;60.00;35.30;;;;;;;;;;5063171;28;20502;-70
2020/12/31 06:48:03;;;;;;;67.75;39.28;;;;;;;;;;5085372;28;20744;-70
2020/12/31 06:50:48;;;;;;;55.42;34.22;;;;;;;;;;5079297;28;20028;-70
2020/12/31 06:53:29;;;;;;;52.92;33.17;;;;;;;;;;5070952;28;20478;-70
2020/12/31 06:55:55;;;;;;;59.78;35.00;;;;;;;;;;5084420;28;20028;-70
2020/12/31 06:58:27;;;;;;;69.15;42.90;;;;;;;;;;5088508;28;20055;-70
2020/12/31 07:00:54;;;;;;;49.40;28.20;;;;;;;;;;5081659;28;20032;-70
2020/12/31 07:03:46;;;;;;;47.08;28.73;;;;;;;;;;5067604;28;20115;-70
2020/12/31 07:06:20;;;;;;;88.40;49.20;;;;;;;;;;5081083;28;20140;-70
2020/12/31 07:08:49;;;;;;;60.42;34.80;;;;;;;;;;5080429;28;20032;-63
2020/12/31 07:11:27;;;;;;;81.50;40.72;;;;;;;;;;5078271;28;20059;-64
2020/12/31 07:13:52;;;;;;;73.28;37.78;;;;;;;;;;5080812;28;20034;-64
2020/12/31 07:16:36;;;;;;;55.40;28.63;;;;;;;;;;5090733;28;20114;-63
2020/12/31 07:19:02;;;;;;;39.42;23.42;;;;;;;;;;5073342;28;20068;-63
2020/12/31 07:21:28;;;;;;;38.35;21.02;;;;;;;;;;5065642;28;20470;-64
2020/12/31 07:23:54;;;;;;;32.53;18.60;;;;;;;;;;5077262;28;20028;-64
2020/12/31 07:26:19;;;;;;;29.55;17.85;;;;;;;;;;5094228;28;20131;-64
2020/12/31 07:28:47;;;;;;;30.42;18.23;;;;;;;;;;5096193;28;20416;-64
2020/12/31 07:31:32;;;;;;;33.20;18.50;;;;;;;;;;5087353;28;20069;-64
2020/12/31 07:34:17;;;;;;;32.75;18.83;;;;;;;;;;5079617;28;20486;-64
2020/12/31 07:36:43;;;;;;;36.03;19.17;;;;;;;;;;5083596;28;20051;-64
2020/12/31 07:39:08;;;;;;;37.08;20.63;;;;;;;;;;5076035;28;20115;-64
2020/12/31 07:41:34;;;;;;;47.28;24.70;;;;;;;;;;5080766;28;20557;-64
2020/12/31 07:44:03;;;;;;;37.40;21.00;;;;;;;;;;5093115;28;20032;-64
2020/12/31 07:46:29;;;;;;;38.85;19.65;;;;;;;;;;5070601;28;20047;-64
2020/12/31 07:48:54;;;;;;;37.17;20.77;;;;;;;;;;5057786;28;20041;-64
2020/12/31 07:51:21;;;;;;;42.20;22.55;;;;;;;;;;5084799;28;20035;-64
2020/12/31 07:53:56;;;;;;;37.00;20.48;;;;;;;;;;5077199;28;20098;-64
2020/12/31 07:56:23;;;;;;;34.30;19.75;;;;;;;;;;5077761;28;20040;-64
2020/12/31 07:58:49;;;;;;;36.03;20.83;;;;;;;;;;5096047;28;20489;-64
2020/12/31 08:01:14;;;;;;;32.65;18.88;;;;;;;;;;5095810;28;20040;-64
2020/12/31 08:03:40;;;;;;;34.15;19.55;;;;;;;;;;5095610;28;20035;-64
2020/12/31 08:06:09;;;;;;;37.10;22.08;;;;;;;;;;5095468;28;20077;-64
2020/12/31 08:08:35;;;;;;;34.28;19.45;;;;;;;;;;5095399;28;20020;-64
2020/12/31 08:11:10;;;;;;;35.10;20.42;;;;;;;;;;5073746;28;20090;-64
2020/12/31 08:13:36;;;;;;;36.83;20.40;;;;;;;;;;5075286;28;20032;-63
2020/12/31 08:16:01;;;;;;;35.05;19.73;;;;;;;;;;5075057;28;20043;-64
2020/12/31 08:18:27;;;;;;;31.75;18.77;;;;;;;;;;5075000;28;20453;-63
2020/12/31 08:20:53;;;;;;;33.05;18.13;;;;;;;;;;5075093;28;20115;-63
2020/12/31 08:23:21;;;;;;;32.63;18.77;;;;;;;;;;5074902;28;20046;-63
2020/12/31 08:25:47;;;;;;;33.85;19.23;;;;;;;;;;5073701;28;20035;-63
2020/12/31 08:28:16;;;;;;;34.53;19.52;;;;;;;;;;5073534;28;20051;-63
2020/12/31 08:30:42;;;;;;;46.95;25.02;;;;;;;;;;5073524;28;20538;-63
2020/12/31 08:33:07;;;;;;;40.25;24.85;;;;;;;;;;5074141;28;20067;-63
2020/12/31 08:35:34;;;;;;;34.80;20.30;;;;;;;;;;5073385;28;20020;-63
2020/12/31 08:37:59;;;;;;;35.17;20.98;;;;;;;;;;5074805;28;20032;-63
2020/12/31 08:40:24;;;;;;;34.08;20.20;;;;;;;;;;5072890;28;20021;-63
2020/12/31 08:42:54;;;;;;;30.52;19.63;;;;;;;;;;5074843;28;20064;-63
2020/12/31 08:45:26;;;;;;;35.78;20.50;;;;;;;;;;5074651;28;20035;-63
2020/12/31 08:47:52;;;;;;;33.22;19.40;;;;;;;;;;5074384;28;20175;-63
2020/12/31 08:50:17;;;;;;;44.17;26.80;;;;;;;;;;5074321;28;20481;-63
2020/12/31 08:52:43;;;;;;;53.28;34.17;;;;;;;;;;5074506;28;20028;-63
2020/12/31 08:55:14;;;;;;;81.20;46.67;;;;;;;;;;5074230;28;20383;-63
2020/12/31 08:57:40;;;;;;;47.03;27.00;;;;;;;;;;5074219;28;20032;-63
2020/12/31 09:00:06;;;;;;;33.70;20.25;;;;;;;;;;5074048;28;20035;-64
2020/12/31 09:02:31;;;;;;;35.60;20.48;;;;;;;;;;5074128;28;20044;-64
2020/12/31 09:08:33;;;;;;;32.63;19.92;;;;;;;;;;5074655;28;20051;-63
2020/12/31 09:18:00;;;;;;;29.73;18.63;;;;;;;;;;5094917;28;20047;-64
2020/12/31 09:24:11;;;;;;;43.47;23.30;;;;;;;;;;5094860;28;20511;-64
2020/12/31 09:30:32;;;;;;;40.65;23.10;;;;;;;;;;5032506;28;20072;-64
2020/12/31 09:36:33;;;;;;;37.92;23.00;;;;;;;;;;5094772;28;20026;-64
2020/12/31 09:42:35;;;;;;;44.65;24.92;;;;;;;;;;5094480;28;20055;-64
2020/12/31 09:48:35;;;;;;;42.47;25.40;;;;;;;;;;5094275;28;20038;-64
2020/12/31 09:54:35;;;;;;;28.80;17.80;;;;;;;;;;5094333;28;20075;-64
2020/12/31 10:00:36;;;;;;;33.75;19.67;;;;;;;;;;5094213;28;20031;-63
2020/12/31 10:06:42;;;;;;;41.78;23.77;;;;;;;;;;5094127;28;20031;-63
2020/12/31 10:12:43;;;;;;;46.67;25.05;;;;;;;;;;5093811;28;20072;-64
2020/12/31 10:21:58;;;;;;;40.70;23.30;;;;;;;;;;5094006;28;20509;-64
2020/12/31 10:27:59;;;;;;;43.85;24.50;;;;;;;;;;5093899;28;20100;-64
2020/12/31 10:33:59;;;;;;;48.00;26.00;;;;;;;;;;5093847;28;20374;-64
2020/12/31 10:39:59;;;;;;;52.35;27.70;;;;;;;;;;5093850;28;20165;-64
2020/12/31 10:45:59;;;;;;;46.35;25.75;;;;;;;;;;5093653;28;20497;-64
2020/12/31 10:52:01;;;;;;;58.65;29.50;;;;;;;;;;5093706;28;20031;-64
2020/12/31 10:58:01;;;;;;;51.70;26.63;;;;;;;;;;5097614;28;20031;-64
2020/12/31 11:04:02;;;;;;;38.47;23.05;;;;;;;;;;5097499;28;20532;-64
2020/12/31 11:10:04;;;;;;;48.70;26.60;;;;;;;;;;5097111;28;20149;-64
2020/12/31 11:16:07;;;;;;;39.60;22.60;;;;;;;;;;5097327;28;20020;-64
2020/12/31 11:25:30;;;;;;;44.45;23.60;;;;;;;;;;5097118;28;20032;-64
2020/12/31 11:31:32;;;;;;;47.50;26.92;;;;;;;;;;5097016;28;20031;-64
2020/12/31 11:37:34;;;;;;;54.85;28.70;;;;;;;;;;5096637;28;20060;-64
2020/12/31 11:43:35;;;;;;;46.58;26.95;;;;;;;;;;5096760;28;20062;-64
2020/12/31 11:49:35;;;;;;;41.25;23.08;;;;;;;;;;5096388;28;20096;-64
2020/12/31 11:52:01;;;;;;;41.83;23.42;;;;;;;;;;5096084;28;20474;-64
2020/12/31 11:54:26;;;;;;;415.58;210.20;;;;;;;;;;5095554;28;20565;-64
2020/12/31 11:56:52;;;;;;;43.60;24.70;;;;;;;;;;5077542;28;20073;-64
2020/12/31 11:59:18;;;;;;;29.02;17.08;;;;;;;;;;5095665;28;20024;-64
2020/12/31 12:01:52;;;;;;;39.42;20.85;;;;;;;;;;5095648;28;20036;-63
2020/12/31 12:04:19;;;;;;;199.85;76.47;;;;;;;;;;5095592;28;20115;-63
2020/12/31 12:06:48;;;;;;;655.20;283.98;;;;;;;;;;5095719;28;20371;-63
2020/12/31 12:09:14;;;;;;;251.88;118.35;;;;;;;;;;5094464;28;20036;-63
2020/12/31 12:11:39;;;;;;;346.35;156.77;;;;;;;;;;5095808;28;20016;-63
2020/12/31 12:14:05;;;;;;;1803.28;789.38;;;;;;;;;;5077340;28;20028;-63
2020/12/31 12:16:30;;;;;;;725.08;375.73;;;;;;;;;;5095293;28;20043;-63
2020/12/31 12:18:56;;;;;;;587.15;302.27;;;;;;;;;;5095262;28;20069;-63
2020/12/31 12:21:21;;;;;;;76.47;40.42;;;;;;;;;;5094788;28;20123;-65
2020/12/31 12:23:48;;;;;;;48.03;26.95;;;;;;;;;;5077614;28;20046;-63
2020/12/31 12:26:13;;;;;;;47.50;25.63;;;;;;;;;;5095108;28;20052;-63
2020/12/31 12:28:39;;;;;;;41.92;24.30;;;;;;;;;;5094981;28;20047;-63
2020/12/31 12:31:05;;;;;;;44.53;24.85;;;;;;;;;;5095258;28;20027;-63
2020/12/31 12:33:30;;;;;;;44.50;24.45;;;;;;;;;;5095210;28;20070;-63
2020/12/31 12:35:56;;;;;;;41.83;24.10;;;;;;;;;;5077003;28;20601;-63
2020/12/31 12:38:27;;;;;;;40.35;23.05;;;;;;;;;;5094926;28;20036;-63
2020/12/31 12:40:53;;;;;;;47.15;25.25;;;;;;;;;;5095013;28;20403;-63
2020/12/31 12:43:18;;;;;;;47.03;25.48;;;;;;;;;;5095044;28;20028;-63
2020/12/31 12:45:44;;;;;;;44.30;23.67;;;;;;;;;;5095020;28;20062;-64
2020/12/31 12:48:10;;;;;;;38.72;21.58;;;;;;;;;;5094988;28;20063;-64
2020/12/31 12:50:35;;;;;;;36.45;22.58;;;;;;;;;;5094488;28;20036;-64
2020/12/31 12:53:01;;;;;;;37.70;22.65;;;;;;;;;;5094736;28;20372;-64
2020/12/31 12:55:26;;;;;;;37.67;20.83;;;;;;;;;;5092267;28;20111;-64
2020/12/31 12:57:52;;;;;;;35.38;20.80;;;;;;;;;;5080123;28;20521;-64
2020/12/31 13:00:18;;;;;;;32.47;17.80;;;;;;;;;;5094491;28;20055;-64
2020/12/31 13:02:43;;;;;;;39.95;21.33;;;;;;;;;;5094552;28;20077;-64
2020/12/31 13:05:09;;;;;;;56.92;32.28;;;;;;;;;;5059781;28;20398;-64
2020/12/31 13:07:35;;;;;;;44.80;28.55;;;;;;;;;;5074322;28;20029;-61
2020/12/31 13:10:00;;;;;;;28.33;18.05;;;;;;;;;;5073946;28;20120;-64
2020/12/31 13:12:26;;;;;;;28.70;17.70;;;;;;;;;;5074086;28;20044;-64
2020/12/31 13:14:51;;;;;;;27.33;15.52;;;;;;;;;;5074015;28;20456;-61
2020/12/31 13:17:17;;;;;;;37.25;18.70;;;;;;;;;;5073976;28;20033;-63
2020/12/31 13:19:43;;;;;;;36.10;21.77;;;;;;;;;;5073903;28;20036;-63
2020/12/31 13:22:09;;;;;;;35.60;20.70;;;;;;;;;;5073617;28;20037;-64
2020/12/31 13:24:35;;;;;;;56.53;31.88;;;;;;;;;;5073789;28;20051;-66
2020/12/31 13:27:01;;;;;;;141.93;80.68;;;;;;;;;;5073763;28;20108;-66
2020/12/31 13:29:27;;;;;;;145.07;85.57;;;;;;;;;;5073588;28;20127;-66
2020/12/31 13:31:52;;;;;;;178.73;100.97;;;;;;;;;;5073794;28;20021;-66
2020/12/31 13:34:18;;;;;;;59.15;34.05;;;;;;;;;;5073832;28;20371;-65
2020/12/31 13:36:48;;;;;;;51.92;29.02;;;;;;;;;;5073765;28;20082;-65
2020/12/31 13:39:13;;;;;;;50.25;28.80;;;;;;;;;;5072529;28;20048;-65
2020/12/31 13:41:39;;;;;;;56.28;29.75;;;;;;;;;;5073568;28;20025;-71
2020/12/31 13:44:04;;;;;;;53.65;33.20;;;;;;;;;;5073644;28;20036;-72
2020/12/31 13:46:30;;;;;;;69.88;40.50;;;;;;;;;;5073487;28;20029;-71
2020/12/31 13:48:55;;;;;;;55.03;31.85;;;;;;;;;;5072062;28;20047;-71
2020/12/31 13:51:24;;;;;;;51.10;30.35;;;;;;;;;;5073678;28;20050;-71
2020/12/31 13:53:51;;;;;;;50.45;28.77;;;;;;;;;;5073998;28;20040;-72
2020/12/31 13:56:19;;;;;;;43.33;25.40;;;;;;;;;;5073518;28;20025;-71
2020/12/31 13:58:45;;;;;;;42.28;25.15;;;;;;;;;;5072270;28;20071;-71
2020/12/31 14:01:12;;;;;;;36.55;22.58;;;;;;;;;;5077567;28;20052;-71
2020/12/31 14:03:38;;;;;;;47.60;26.83;;;;;;;;;;5055633;28;20153;-64
2020/12/31 14:06:06;;;;;;;43.25;24.58;;;;;;;;;;5088869;28;20478;-64
2020/12/31 14:08:33;;;;;;;39.47;24.35;;;;;;;;;;5093412;28;20031;-68
2020/12/31 14:10:58;;;;;;;42.78;25.13;;;;;;;;;;5075173;28;20087;-69
2020/12/31 14:13:24;;;;;;;44.17;27.00;;;;;;;;;;5093105;28;20047;-69
2020/12/31 14:15:50;;;;;;;48.50;30.52;;;;;;;;;;5075285;28;20028;-69
2020/12/31 14:18:15;;;;;;;49.95;29.70;;;;;;;;;;5075102;28;20081;-69
2020/12/31 14:20:40;;;;;;;47.80;29.48;;;;;;;;;;5093371;28;20012;-69
2020/12/31 14:27:15;;;;;;;63.60;36.28;;;;;;;;;;5093996;28;20119;-69
2020/12/31 14:33:15;;;;;;;88.20;47.22;;;;;;;;;;5098119;28;20026;-69
2020/12/31 14:39:16;;;;;;;52.22;29.15;;;;;;;;;;5097912;28;20030;-69
2020/12/31 14:45:16;;;;;;;44.50;26.73;;;;;;;;;;5097890;28;20086;-69
2020/12/31 14:51:16;;;;;;;41.72;24.10;;;;;;;;;;5097795;28;20178;-69
2020/12/31 14:57:17;;;;;;;48.20;30.20;;;;;;;;;;5097682;28;20102;-69
2020/12/31 15:03:19;;;;;;;394.30;198.90;;;;;;;;;;5097291;28;20094;-68
2020/12/31 15:09:19;;;;;;;40.10;25.75;;;;;;;;;;5097255;28;20039;-69
2020/12/31 15:15:21;;;;;;;46.60;28.58;;;;;;;;;;5097331;28;20090;-69
2020/12/31 15:29:34;;;;;;;29.73;19.05;;;;;;;;;;5096985;28;20074;-68
2020/12/31 15:35:35;;;;;;;34.25;20.25;;;;;;;;;;5096966;28;20389;-69
2020/12/31 15:41:36;;;;;;;28.42;18.05;;;;;;;;;;5096582;28;20102;-69
2020/12/31 15:47:38;;;;;;;30.35;18.65;;;;;;;;;;5096461;28;20119;-69
2020/12/31 15:53:39;;;;;;;30.50;18.52;;;;;;;;;;5096587;28;20142;-69
2020/12/31 15:59:40;;;;;;;29.20;18.90;;;;;;;;;;5096240;28;20097;-69
2020/12/31 16:05:41;;;;;;;34.30;19.80;;;;;;;;;;5096346;28;20105;-68
2020/12/31 16:11:42;;;;;;;32.30;20.75;;;;;;;;;;5096504;28;20481;-68
2020/12/31 16:17:42;;;;;;;38.33;23.63;;;;;;;;;;5096353;28;20027;-68
2020/12/31 16:23:42;;;;;;;51.75;31.95;;;;;;;;;;5096037;28;20032;-68
2020/12/31 16:33:07;;;;;;;53.38;30.73;;;;;;;;;;5095825;28;20156;-68
2020/12/31 16:39:07;;;;;;;52.90;31.00;;;;;;;;;;5095833;28;20129;-68
2020/12/31 16:45:09;;;;;;;87.35;42.90;;;;;;;;;;5095579;28;20031;-68
2020/12/31 16:51:10;;;;;;;43.38;26.73;;;;;;;;;;5095527;28;20149;-68
2020/12/31 16:57:11;;;;;;;52.88;30.67;;;;;;;;;;5095143;28;20027;-69
2020/12/31 17:03:12;;;;;;;48.22;28.75;;;;;;;;;;5095296;28;20062;-69
2020/12/31 17:09:14;;;;;;;44.45;27.15;;;;;;;;;;5094836;28;20039;-69
2020/12/31 17:15:15;;;;;;;45.55;28.23;;;;;;;;;;5095027;28;20078;-68
2020/12/31 20:32:03;;;;;;;82.90;41.50;;;;;;;;;;5091710;28;20051;-69
2020/12/31 20:34:29;;;;;;;83.45;40.90;;;;;;;;;;5095159;28;20036;-69
2020/12/31 20:36:55;;;;;;;57.97;32.83;;;;;;;;;;5077078;28;20474;-69
2020/12/31 20:39:21;;;;;;;53.50;31.58;;;;;;;;;;5077020;28;20047;-69
2020/12/31 20:41:46;;;;;;;59.58;33.05;;;;;;;;;;5077090;28;20039;-69
2020/12/31 20:44:12;;;;;;;59.15;31.60;;;;;;;;;;5094610;28;20032;-69
2020/12/31 20:46:41;;;;;;;55.17;30.73;;;;;;;;;;5094789;28;20448;-69
2020/12/31 20:49:08;;;;;;;57.53;30.90;;;;;;;;;;5095173;28;20047;-69
2020/12/31 20:51:33;;;;;;;66.60;34.25;;;;;;;;;;5094756;28;20046;-68
2020/12/31 20:54:00;;;;;;;49.45;28.98;;;;;;;;;;5094415;28;20486;-69
2020/12/31 20:56:26;;;;;;;60.33;33.15;;;;;;;;;;5095066;28;20074;-69
2020/12/31 20:58:52;;;;;;;57.13;30.65;;;;;;;;;;5094573;28;20040;-69
2020/12/31 21:01:18;;;;;;;58.35;32.03;;;;;;;;;;5094750;28;20032;-69